sensor_id;sensor_type;location;lat;lon;timestamp;P1;durP1;ratioP1;P2;durP2;ratioP2
49592;SDS011;35499;51.482;4.264;2023-02-27T00:02:07;2.63;;;1.35;;
49592;SDS011;35499;51.482;4.264;2023-02-27T00:04:33;3.13;;;1.20;;
49592;SDS011;35499;51.482;4.264;2023-02-27T00:06:59;5.30;;;0.98;;
49592;SDS011;35499;51.482;4.264;2023-02-27T00:09:24;2.42;;;1.15;;
49592;SDS011;35499;51.482;4.264;2023-02-27T00:11:50;3.28;;;0.77;;
49592;SDS011;35499;51.482;4.264;2023-02-27T00:14:15;3.90;;;1.17;;
49592;SDS011;35499;51.482;4.264;2023-02-27T00:16:40;4.80;;;1.00;;
49592;SDS011;35499;51.482;4.264;2023-02-27T00:19:06;1.10;;;0.63;;
49592;SDS011;35499;51.482;4.264;2023-02-27T00:21:31;3.13;;;0.93;;
49592;SDS011;35499;51.482;4.264;2023-02-27T00:23:56;4.57;;;1.15;;
49592;SDS011;35499;51.482;4.264;2023-02-27T00:26:22;2.20;;;0.73;;
49592;SDS011;35499;51.482;4.264;2023-02-27T00:28:47;2.88;;;0.88;;
49592;SDS011;35499;51.482;4.264;2023-02-27T00:31:13;1.83;;;1.27;;
49592;SDS011;35499;51.482;4.264;2023-02-27T00:33:38;2.10;;;1.10;;
49592;SDS011;35499;51.482;4.264;2023-02-27T00:36:04;1.95;;;0.95;;
49592;SDS011;35499;51.482;4.264;2023-02-27T00:38:29;2.80;;;0.93;;
49592;SDS011;35499;51.482;4.264;2023-02-27T00:40:54;4.82;;;1.23;;
49592;SDS011;35499;51.482;4.264;2023-02-27T00:43:20;2.03;;;1.43;;
49592;SDS011;35499;51.482;4.264;2023-02-27T00:45:46;4.15;;;1.05;;
49592;SDS011;35499;51.482;4.264;2023-02-27T00:48:12;9.73;;;1.65;;
49592;SDS011;35499;51.482;4.264;2023-02-27T00:50:37;5.83;;;0.90;;
49592;SDS011;35499;51.482;4.264;2023-02-27T00:53:02;3.60;;;0.93;;
49592;SDS011;35499;51.482;4.264;2023-02-27T00:55:28;3.65;;;1.27;;
49592;SDS011;35499;51.482;4.264;2023-02-27T00:57:53;2.72;;;1.23;;
49592;SDS011;35499;51.482;4.264;2023-02-27T01:00:19;5.77;;;1.07;;
49592;SDS011;35499;51.482;4.264;2023-02-27T01:02:44;8.48;;;1.45;;
49592;SDS011;35499;51.482;4.264;2023-02-27T01:05:09;1.00;;;0.50;;
49592;SDS011;35499;51.482;4.264;2023-02-27T01:07:35;3.25;;;0.85;;
49592;SDS011;35499;51.482;4.264;2023-02-27T01:10:02;2.15;;;1.05;;
49592;SDS011;35499;51.482;4.264;2023-02-27T01:12:28;5.88;;;1.13;;
49592;SDS011;35499;51.482;4.264;2023-02-27T01:14:53;4.35;;;1.45;;
49592;SDS011;35499;51.482;4.264;2023-02-27T01:17:19;1.00;;;0.43;;
49592;SDS011;35499;51.482;4.264;2023-02-27T01:19:44;4.00;;;0.80;;
49592;SDS011;35499;51.482;4.264;2023-02-27T01:22:09;2.47;;;1.00;;
49592;SDS011;35499;51.482;4.264;2023-02-27T01:24:35;2.90;;;1.20;;
49592;SDS011;35499;51.482;4.264;2023-02-27T01:27:00;3.63;;;1.37;;
49592;SDS011;35499;51.482;4.264;2023-02-27T01:29:25;2.90;;;0.80;;
49592;SDS011;35499;51.482;4.264;2023-02-27T01:31:51;1.63;;;1.27;;
49592;SDS011;35499;51.482;4.264;2023-02-27T01:34:16;2.80;;;1.35;;
49592;SDS011;35499;51.482;4.264;2023-02-27T01:36:42;2.83;;;1.25;;
49592;SDS011;35499;51.482;4.264;2023-02-27T01:39:07;2.42;;;0.98;;
49592;SDS011;35499;51.482;4.264;2023-02-27T01:41:33;4.57;;;1.50;;
49592;SDS011;35499;51.482;4.264;2023-02-27T01:44:00;1.77;;;0.98;;
49592;SDS011;35499;51.482;4.264;2023-02-27T01:46:28;2.45;;;0.75;;
49592;SDS011;35499;51.482;4.264;2023-02-27T01:48:56;1.40;;;0.82;;
49592;SDS011;35499;51.482;4.264;2023-02-27T01:51:46;4.40;;;1.55;;
49592;SDS011;35499;51.482;4.264;2023-02-27T01:54:15;1.88;;;1.15;;
49592;SDS011;35499;51.482;4.264;2023-02-27T01:56:44;4.93;;;0.93;;
49592;SDS011;35499;51.482;4.264;2023-02-27T01:59:10;3.22;;;1.27;;
49592;SDS011;35499;51.482;4.264;2023-02-27T02:01:36;3.90;;;1.42;;
49592;SDS011;35499;51.482;4.264;2023-02-27T02:04:08;4.07;;;1.05;;
49592;SDS011;35499;51.482;4.264;2023-02-27T02:06:38;2.58;;;1.05;;
49592;SDS011;35499;51.482;4.264;2023-02-27T02:09:06;4.78;;;1.60;;
49592;SDS011;35499;51.482;4.264;2023-02-27T02:11:34;1.85;;;1.00;;
49592;SDS011;35499;51.482;4.264;2023-02-27T02:14:00;3.00;;;1.02;;
49592;SDS011;35499;51.482;4.264;2023-02-27T02:46:56;4.35;;;1.83;;
49592;SDS011;35499;51.482;4.264;2023-02-27T02:49:30;2.45;;;1.48;;
49592;SDS011;35499;51.482;4.264;2023-02-27T03:00:31;4.88;;;2.00;;
49592;SDS011;35499;51.482;4.264;2023-02-27T03:03:43;3.15;;;1.05;;
49592;SDS011;35499;51.482;4.264;2023-02-27T03:05:54;5.13;;;1.40;;
49592;SDS011;35499;51.482;4.264;2023-02-27T03:08:25;4.45;;;1.02;;
49592;SDS011;35499;51.482;4.264;2023-02-27T03:11:01;3.20;;;1.05;;
49592;SDS011;35499;51.482;4.264;2023-02-27T03:18:32;4.88;;;1.35;;
49592;SDS011;35499;51.482;4.264;2023-02-27T03:21:04;2.28;;;1.38;;
49592;SDS011;35499;51.482;4.264;2023-02-27T03:23:36;3.72;;;1.13;;
49592;SDS011;35499;51.482;4.264;2023-02-27T03:26:08;4.10;;;1.45;;
49592;SDS011;35499;51.482;4.264;2023-02-27T03:31:05;3.72;;;1.05;;
49592;SDS011;35499;51.482;4.264;2023-02-27T03:33:35;1.42;;;0.88;;
49592;SDS011;35499;51.482;4.264;2023-02-27T03:36:14;2.17;;;0.75;;
49592;SDS011;35499;51.482;4.264;2023-02-27T03:39:31;5.47;;;1.17;;
49592;SDS011;35499;51.482;4.264;2023-02-27T03:41:59;5.28;;;1.33;;
49592;SDS011;35499;51.482;4.264;2023-02-27T03:44:30;3.78;;;1.15;;
49592;SDS011;35499;51.482;4.264;2023-02-27T03:47:00;5.47;;;1.73;;
49592;SDS011;35499;51.482;4.264;2023-02-27T03:49:26;5.80;;;1.63;;
49592;SDS011;35499;51.482;4.264;2023-02-27T03:51:51;5.43;;;2.35;;
49592;SDS011;35499;51.482;4.264;2023-02-27T03:54:22;2.75;;;1.35;;
49592;SDS011;35499;51.482;4.264;2023-02-27T03:57:05;6.25;;;1.42;;
49592;SDS011;35499;51.482;4.264;2023-02-27T03:59:33;5.28;;;1.48;;
49592;SDS011;35499;51.482;4.264;2023-02-27T04:02:01;7.63;;;1.42;;
49592;SDS011;35499;51.482;4.264;2023-02-27T04:04:28;20.20;;;1.45;;
49592;SDS011;35499;51.482;4.264;2023-02-27T04:07:00;3.15;;;1.20;;
49592;SDS011;35499;51.482;4.264;2023-02-27T04:23:08;10.60;;;1.77;;
49592;SDS011;35499;51.482;4.264;2023-02-27T04:25:56;5.95;;;1.40;;
49592;SDS011;35499;51.482;4.264;2023-02-27T04:28:34;3.85;;;1.15;;
49592;SDS011;35499;51.482;4.264;2023-02-27T04:31:18;4.55;;;1.38;;
49592;SDS011;35499;51.482;4.264;2023-02-27T04:33:54;2.70;;;1.15;;
49592;SDS011;35499;51.482;4.264;2023-02-27T04:41:30;4.13;;;1.73;;
49592;SDS011;35499;51.482;4.264;2023-02-27T04:44:00;5.30;;;1.70;;
49592;SDS011;35499;51.482;4.264;2023-02-27T04:46:27;2.30;;;1.65;;
49592;SDS011;35499;51.482;4.264;2023-02-27T04:49:11;2.35;;;1.25;;
49592;SDS011;35499;51.482;4.264;2023-02-27T04:51:47;4.15;;;1.58;;
49592;SDS011;35499;51.482;4.264;2023-02-27T04:54:19;6.28;;;2.13;;
49592;SDS011;35499;51.482;4.264;2023-02-27T04:56:51;4.82;;;1.95;;
49592;SDS011;35499;51.482;4.264;2023-02-27T04:59:20;7.90;;;1.63;;
49592;SDS011;35499;51.482;4.264;2023-02-27T05:04:23;3.55;;;1.88;;
49592;SDS011;35499;51.482;4.264;2023-02-27T05:06:51;4.53;;;1.13;;
49592;SDS011;35499;51.482;4.264;2023-02-27T05:09:19;9.80;;;1.83;;
49592;SDS011;35499;51.482;4.264;2023-02-27T05:11:55;5.93;;;1.83;;
49592;SDS011;35499;51.482;4.264;2023-02-27T05:14:30;2.78;;;1.67;;
49592;SDS011;35499;51.482;4.264;2023-02-27T05:17:02;3.47;;;1.70;;
49592;SDS011;35499;51.482;4.264;2023-02-27T05:19:31;4.07;;;1.98;;
49592;SDS011;35499;51.482;4.264;2023-02-27T05:25:19;2.17;;;1.55;;
49592;SDS011;35499;51.482;4.264;2023-02-27T05:33:40;11.45;;;2.08;;
49592;SDS011;35499;51.482;4.264;2023-02-27T05:39:03;3.95;;;1.95;;
49592;SDS011;35499;51.482;4.264;2023-02-27T05:44:24;2.60;;;1.38;;
49592;SDS011;35499;51.482;4.264;2023-02-27T05:47:05;3.45;;;1.50;;
49592;SDS011;35499;51.482;4.264;2023-02-27T05:49:39;5.68;;;1.50;;
49592;SDS011;35499;51.482;4.264;2023-02-27T05:54:36;5.25;;;1.50;;
49592;SDS011;35499;51.482;4.264;2023-02-27T05:57:07;4.07;;;1.40;;
49592;SDS011;35499;51.482;4.264;2023-02-27T06:02:11;4.28;;;1.88;;
49592;SDS011;35499;51.482;4.264;2023-02-27T06:04:37;7.20;;;2.30;;
49592;SDS011;35499;51.482;4.264;2023-02-27T06:07:02;3.03;;;1.80;;
49592;SDS011;35499;51.482;4.264;2023-02-27T06:09:31;4.93;;;1.98;;
49592;SDS011;35499;51.482;4.264;2023-02-27T06:11:57;3.45;;;1.27;;
49592;SDS011;35499;51.482;4.264;2023-02-27T06:14:25;3.30;;;1.98;;
49592;SDS011;35499;51.482;4.264;2023-02-27T06:16:50;3.45;;;2.22;;
49592;SDS011;35499;51.482;4.264;2023-02-27T06:19:16;3.37;;;1.93;;
49592;SDS011;35499;51.482;4.264;2023-02-27T06:21:41;3.20;;;1.40;;
49592;SDS011;35499;51.482;4.264;2023-02-27T06:24:06;4.40;;;1.75;;
49592;SDS011;35499;51.482;4.264;2023-02-27T06:26:32;7.80;;;1.83;;
49592;SDS011;35499;51.482;4.264;2023-02-27T06:28:57;3.03;;;1.67;;
49592;SDS011;35499;51.482;4.264;2023-02-27T06:31:23;2.65;;;1.67;;
49592;SDS011;35499;51.482;4.264;2023-02-27T06:33:48;3.80;;;1.17;;
49592;SDS011;35499;51.482;4.264;2023-02-27T06:36:14;5.47;;;1.83;;
49592;SDS011;35499;51.482;4.264;2023-02-27T06:38:39;3.40;;;2.00;;
49592;SDS011;35499;51.482;4.264;2023-02-27T06:41:04;4.13;;;1.63;;
49592;SDS011;35499;51.482;4.264;2023-02-27T06:43:30;6.57;;;1.93;;
49592;SDS011;35499;51.482;4.264;2023-02-27T06:45:58;2.72;;;1.63;;
49592;SDS011;35499;51.482;4.264;2023-02-27T06:48:24;8.20;;;2.27;;
49592;SDS011;35499;51.482;4.264;2023-02-27T06:50:52;4.27;;;1.43;;
49592;SDS011;35499;51.482;4.264;2023-02-27T06:53:18;2.40;;;1.40;;
49592;SDS011;35499;51.482;4.264;2023-02-27T06:55:44;3.10;;;1.63;;
49592;SDS011;35499;51.482;4.264;2023-02-27T06:58:09;2.97;;;1.70;;
49592;SDS011;35499;51.482;4.264;2023-02-27T07:00:34;3.67;;;1.43;;
49592;SDS011;35499;51.482;4.264;2023-02-27T07:03:00;4.13;;;1.67;;
49592;SDS011;35499;51.482;4.264;2023-02-27T07:05:28;4.18;;;1.88;;
49592;SDS011;35499;51.482;4.264;2023-02-27T07:07:53;5.23;;;1.93;;
49592;SDS011;35499;51.482;4.264;2023-02-27T07:10:19;5.20;;;1.83;;
49592;SDS011;35499;51.482;4.264;2023-02-27T07:12:44;7.75;;;2.33;;
49592;SDS011;35499;51.482;4.264;2023-02-27T07:15:09;5.43;;;1.30;;
49592;SDS011;35499;51.482;4.264;2023-02-27T07:17:35;4.53;;;1.85;;
49592;SDS011;35499;51.482;4.264;2023-02-27T07:20:00;3.45;;;1.65;;
49592;SDS011;35499;51.482;4.264;2023-02-27T07:22:26;10.30;;;1.70;;
49592;SDS011;35499;51.482;4.264;2023-02-27T07:24:51;5.57;;;2.30;;
49592;SDS011;35499;51.482;4.264;2023-02-27T07:27:16;3.57;;;1.80;;
49592;SDS011;35499;51.482;4.264;2023-02-27T07:29:41;3.80;;;1.63;;
49592;SDS011;35499;51.482;4.264;2023-02-27T07:32:07;3.50;;;1.50;;
49592;SDS011;35499;51.482;4.264;2023-02-27T07:34:32;2.47;;;1.50;;
49592;SDS011;35499;51.482;4.264;2023-02-27T07:36:58;3.92;;;2.22;;
49592;SDS011;35499;51.482;4.264;2023-02-27T07:39:24;4.30;;;1.50;;
49592;SDS011;35499;51.482;4.264;2023-02-27T07:41:49;5.10;;;1.90;;
49592;SDS011;35499;51.482;4.264;2023-02-27T07:44:14;4.30;;;2.07;;
49592;SDS011;35499;51.482;4.264;2023-02-27T07:46:40;5.43;;;1.83;;
49592;SDS011;35499;51.482;4.264;2023-02-27T07:49:05;4.37;;;2.13;;
49592;SDS011;35499;51.482;4.264;2023-02-27T07:51:30;3.20;;;1.57;;
49592;SDS011;35499;51.482;4.264;2023-02-27T07:53:56;4.73;;;1.50;;
49592;SDS011;35499;51.482;4.264;2023-02-27T07:56:22;7.57;;;2.25;;
49592;SDS011;35499;51.482;4.264;2023-02-27T07:58:48;7.20;;;2.13;;
49592;SDS011;35499;51.482;4.264;2023-02-27T08:01:13;3.23;;;1.63;;
49592;SDS011;35499;51.482;4.264;2023-02-27T08:03:38;4.90;;;1.97;;
49592;SDS011;35499;51.482;4.264;2023-02-27T08:06:04;4.07;;;1.50;;
49592;SDS011;35499;51.482;4.264;2023-02-27T08:08:29;4.40;;;1.75;;
49592;SDS011;35499;51.482;4.264;2023-02-27T08:10:54;4.70;;;1.37;;
49592;SDS011;35499;51.482;4.264;2023-02-27T08:13:20;3.88;;;1.10;;
49592;SDS011;35499;51.482;4.264;2023-02-27T08:15:46;5.20;;;1.42;;
49592;SDS011;35499;51.482;4.264;2023-02-27T08:18:11;7.57;;;2.17;;
49592;SDS011;35499;51.482;4.264;2023-02-27T08:20:37;3.77;;;1.07;;
49592;SDS011;35499;51.482;4.264;2023-02-27T08:23:02;2.00;;;0.97;;
49592;SDS011;35499;51.482;4.264;2023-02-27T08:25:27;3.30;;;1.10;;
49592;SDS011;35499;51.482;4.264;2023-02-27T08:27:54;3.20;;;1.08;;
49592;SDS011;35499;51.482;4.264;2023-02-27T08:30:19;4.43;;;1.35;;
49592;SDS011;35499;51.482;4.264;2023-02-27T08:32:45;3.92;;;1.05;;
49592;SDS011;35499;51.482;4.264;2023-02-27T08:35:10;4.40;;;1.07;;
49592;SDS011;35499;51.482;4.264;2023-02-27T08:37:36;4.28;;;1.20;;
49592;SDS011;35499;51.482;4.264;2023-02-27T08:40:02;2.80;;;1.23;;
49592;SDS011;35499;51.482;4.264;2023-02-27T08:42:30;3.25;;;1.13;;
49592;SDS011;35499;51.482;4.264;2023-02-27T08:44:56;4.38;;;1.40;;
49592;SDS011;35499;51.482;4.264;2023-02-27T08:47:21;5.15;;;1.27;;
49592;SDS011;35499;51.482;4.264;2023-02-27T08:49:46;4.95;;;1.30;;
49592;SDS011;35499;51.482;4.264;2023-02-27T08:52:12;3.23;;;1.17;;
49592;SDS011;35499;51.482;4.264;2023-02-27T08:54:37;4.67;;;1.53;;
49592;SDS011;35499;51.482;4.264;2023-02-27T08:57:02;4.60;;;1.17;;
49592;SDS011;35499;51.482;4.264;2023-02-27T08:59:28;3.28;;;1.38;;
49592;SDS011;35499;51.482;4.264;2023-02-27T09:01:54;4.30;;;1.05;;
49592;SDS011;35499;51.482;4.264;2023-02-27T09:04:19;5.47;;;1.20;;
49592;SDS011;35499;51.482;4.264;2023-02-27T09:06:45;4.80;;;1.00;;
49592;SDS011;35499;51.482;4.264;2023-02-27T09:09:10;4.65;;;1.10;;
49592;SDS011;35499;51.482;4.264;2023-02-27T09:11:35;3.67;;;1.00;;
49592;SDS011;35499;51.482;4.264;2023-02-27T09:14:01;4.35;;;1.20;;
49592;SDS011;35499;51.482;4.264;2023-02-27T09:16:26;3.67;;;1.33;;
49592;SDS011;35499;51.482;4.264;2023-02-27T09:18:51;4.40;;;1.20;;
49592;SDS011;35499;51.482;4.264;2023-02-27T09:21:18;3.65;;;1.00;;
49592;SDS011;35499;51.482;4.264;2023-02-27T09:23:44;5.07;;;1.17;;
49592;SDS011;35499;51.482;4.264;2023-02-27T09:26:09;3.38;;;1.17;;
49592;SDS011;35499;51.482;4.264;2023-02-27T09:28:35;3.43;;;0.87;;
49592;SDS011;35499;51.482;4.264;2023-02-27T09:33:29;4.38;;;1.52;;
49592;SDS011;35499;51.482;4.264;2023-02-27T09:35:55;3.72;;;1.20;;
49592;SDS011;35499;51.482;4.264;2023-02-27T09:38:20;3.97;;;1.60;;
49592;SDS011;35499;51.482;4.264;2023-02-27T09:40:46;3.20;;;0.90;;
49592;SDS011;35499;51.482;4.264;2023-02-27T09:43:15;2.90;;;1.05;;
49592;SDS011;35499;51.482;4.264;2023-02-27T09:45:43;6.13;;;1.42;;
49592;SDS011;35499;51.482;4.264;2023-02-27T09:51:21;2.53;;;1.00;;
49592;SDS011;35499;51.482;4.264;2023-02-27T09:53:48;4.90;;;1.10;;
49592;SDS011;35499;51.482;4.264;2023-02-27T09:56:32;3.05;;;1.17;;
49592;SDS011;35499;51.482;4.264;2023-02-27T09:59:15;5.18;;;1.05;;
49592;SDS011;35499;51.482;4.264;2023-02-27T10:07:34;3.10;;;1.00;;
49592;SDS011;35499;51.482;4.264;2023-02-27T10:15:48;2.97;;;0.82;;
49592;SDS011;35499;51.482;4.264;2023-02-27T10:18:18;2.92;;;0.70;;
49592;SDS011;35499;51.482;4.264;2023-02-27T10:20:59;4.22;;;0.80;;
49592;SDS011;35499;51.482;4.264;2023-02-27T10:23:35;3.58;;;0.70;;
49592;SDS011;35499;51.482;4.264;2023-02-27T10:26:04;5.43;;;1.20;;
49592;SDS011;35499;51.482;4.264;2023-02-27T10:28:30;4.40;;;1.00;;
49592;SDS011;35499;51.482;4.264;2023-02-27T10:30:56;4.70;;;1.08;;
49592;SDS011;35499;51.482;4.264;2023-02-27T10:35:53;5.25;;;1.02;;
49592;SDS011;35499;51.482;4.264;2023-02-27T10:38:24;3.63;;;0.85;;
49592;SDS011;35499;51.482;4.264;2023-02-27T10:40:57;3.95;;;0.80;;
49592;SDS011;35499;51.482;4.264;2023-02-27T10:43:24;3.88;;;1.05;;
49592;SDS011;35499;51.482;4.264;2023-02-27T10:45:49;4.05;;;0.60;;
49592;SDS011;35499;51.482;4.264;2023-02-27T10:48:15;3.10;;;0.90;;
49592;SDS011;35499;51.482;4.264;2023-02-27T10:50:42;5.18;;;0.93;;
49592;SDS011;35499;51.482;4.264;2023-02-27T10:53:20;4.20;;;0.80;;
49592;SDS011;35499;51.482;4.264;2023-02-27T10:55:55;3.42;;;0.85;;
49592;SDS011;35499;51.482;4.264;2023-02-27T10:58:27;4.10;;;1.02;;
49592;SDS011;35499;51.482;4.264;2023-02-27T11:00:57;4.97;;;1.02;;
49592;SDS011;35499;51.482;4.264;2023-02-27T11:03:28;3.25;;;0.80;;
49592;SDS011;35499;51.482;4.264;2023-02-27T11:06:06;3.28;;;0.80;;
49592;SDS011;35499;51.482;4.264;2023-02-27T11:08:36;2.85;;;0.70;;
49592;SDS011;35499;51.482;4.264;2023-02-27T11:11:02;3.83;;;1.05;;
49592;SDS011;35499;51.482;4.264;2023-02-27T11:13:42;5.70;;;0.75;;
49592;SDS011;35499;51.482;4.264;2023-02-27T11:18:39;3.03;;;0.88;;
49592;SDS011;35499;51.482;4.264;2023-02-27T11:23:57;3.53;;;1.08;;
49592;SDS011;35499;51.482;4.264;2023-02-27T11:34:32;3.15;;;0.70;;
49592;SDS011;35499;51.482;4.264;2023-02-27T11:37:03;3.30;;;0.77;;
49592;SDS011;35499;51.482;4.264;2023-02-27T11:39:36;2.75;;;0.90;;
49592;SDS011;35499;51.482;4.264;2023-02-27T11:42:08;2.10;;;0.55;;
49592;SDS011;35499;51.482;4.264;2023-02-27T11:44:38;2.10;;;0.70;;
49592;SDS011;35499;51.482;4.264;2023-02-27T11:47:15;2.10;;;0.60;;
49592;SDS011;35499;51.482;4.264;2023-02-27T11:49:58;2.88;;;0.50;;
49592;SDS011;35499;51.482;4.264;2023-02-27T11:55:55;2.72;;;0.80;;
49592;SDS011;35499;51.482;4.264;2023-02-27T11:58:25;4.15;;;0.68;;
49592;SDS011;35499;51.482;4.264;2023-02-27T12:00:59;3.30;;;1.25;;
49592;SDS011;35499;51.482;4.264;2023-02-27T12:03:34;2.22;;;0.73;;
49592;SDS011;35499;51.482;4.264;2023-02-27T12:06:16;3.53;;;0.50;;
49592;SDS011;35499;51.482;4.264;2023-02-27T12:08:47;4.53;;;0.70;;
49592;SDS011;35499;51.482;4.264;2023-02-27T12:19:15;2.45;;;0.55;;
49592;SDS011;35499;51.482;4.264;2023-02-27T12:21:47;5.18;;;0.77;;
49592;SDS011;35499;51.482;4.264;2023-02-27T12:24:18;1.58;;;0.50;;
49592;SDS011;35499;51.482;4.264;2023-02-27T12:29:22;2.90;;;0.70;;
49592;SDS011;35499;51.482;4.264;2023-02-27T12:31:59;2.47;;;0.55;;
49592;SDS011;35499;51.482;4.264;2023-02-27T12:34:46;4.70;;;0.60;;
49592;SDS011;35499;51.482;4.264;2023-02-27T12:37:16;3.92;;;0.57;;
49592;SDS011;35499;51.482;4.264;2023-02-27T12:39:48;3.38;;;0.60;;
49592;SDS011;35499;51.482;4.264;2023-02-27T12:42:17;2.83;;;0.90;;
49592;SDS011;35499;51.482;4.264;2023-02-27T12:50:42;2.25;;;1.00;;
49592;SDS011;35499;51.482;4.264;2023-02-27T12:56:22;4.82;;;0.70;;
49592;SDS011;35499;51.482;4.264;2023-02-27T13:04:45;4.22;;;1.00;;
49592;SDS011;35499;51.482;4.264;2023-02-27T13:07:20;2.65;;;0.77;;
49592;SDS011;35499;51.482;4.264;2023-02-27T13:10:14;2.22;;;0.70;;
49592;SDS011;35499;51.482;4.264;2023-02-27T13:15:22;2.15;;;0.70;;
49592;SDS011;35499;51.482;4.264;2023-02-27T13:20:43;3.30;;;0.90;;
49592;SDS011;35499;51.482;4.264;2023-02-27T13:26:02;2.97;;;0.70;;
49592;SDS011;35499;51.482;4.264;2023-02-27T13:28:38;3.17;;;1.10;;
49592;SDS011;35499;51.482;4.264;2023-02-27T13:31:17;3.92;;;0.85;;
49592;SDS011;35499;51.482;4.264;2023-02-27T13:33:53;2.97;;;0.95;;
49592;SDS011;35499;51.482;4.264;2023-02-27T13:39:35;3.10;;;0.75;;
49592;SDS011;35499;51.482;4.264;2023-02-27T13:49:55;3.75;;;0.73;;
49592;SDS011;35499;51.482;4.264;2023-02-27T13:52:28;2.72;;;0.90;;
49592;SDS011;35499;51.482;4.264;2023-02-27T13:54:55;1.63;;;0.60;;
49592;SDS011;35499;51.482;4.264;2023-02-27T13:57:22;2.22;;;1.00;;
49592;SDS011;35499;51.482;4.264;2023-02-27T13:59:50;4.47;;;0.90;;
49592;SDS011;35499;51.482;4.264;2023-02-27T14:05:05;3.35;;;0.70;;
49592;SDS011;35499;51.482;4.264;2023-02-27T14:07:33;2.22;;;0.47;;
49592;SDS011;35499;51.482;4.264;2023-02-27T14:10:18;2.40;;;0.45;;
49592;SDS011;35499;51.482;4.264;2023-02-27T14:12:46;2.65;;;0.60;;
49592;SDS011;35499;51.482;4.264;2023-02-27T14:17:47;2.78;;;0.73;;
49592;SDS011;35499;51.482;4.264;2023-02-27T14:20:46;1.73;;;0.63;;
49592;SDS011;35499;51.482;4.264;2023-02-27T14:25:40;1.50;;;0.60;;
49592;SDS011;35499;51.482;4.264;2023-02-27T14:28:15;4.55;;;0.88;;
49592;SDS011;35499;51.482;4.264;2023-02-27T14:30:45;2.65;;;0.85;;
49592;SDS011;35499;51.482;4.264;2023-02-27T14:33:19;3.75;;;1.00;;
49592;SDS011;35499;51.482;4.264;2023-02-27T14:35:54;3.10;;;0.80;;
49592;SDS011;35499;51.482;4.264;2023-02-27T14:38:22;5.10;;;0.98;;
49592;SDS011;35499;51.482;4.264;2023-02-27T14:40:52;1.63;;;0.63;;
49592;SDS011;35499;51.482;4.264;2023-02-27T14:43:47;1.33;;;0.68;;
49592;SDS011;35499;51.482;4.264;2023-02-27T14:48:54;2.70;;;0.73;;
49592;SDS011;35499;51.482;4.264;2023-02-27T14:51:21;3.22;;;0.80;;
49592;SDS011;35499;51.482;4.264;2023-02-27T14:54:04;3.55;;;0.70;;
49592;SDS011;35499;51.482;4.264;2023-02-27T14:56:40;2.05;;;0.93;;
49592;SDS011;35499;51.482;4.264;2023-02-27T14:59:19;3.63;;;0.90;;
49592;SDS011;35499;51.482;4.264;2023-02-27T15:01:46;1.65;;;0.77;;
49592;SDS011;35499;51.482;4.264;2023-02-27T15:04:18;2.13;;;0.70;;
49592;SDS011;35499;51.482;4.264;2023-02-27T15:06:46;4.57;;;1.95;;
49592;SDS011;35499;51.482;4.264;2023-02-27T15:09:29;4.38;;;1.17;;
49592;SDS011;35499;51.482;4.264;2023-02-27T15:12:02;2.97;;;0.95;;
49592;SDS011;35499;51.482;4.264;2023-02-27T15:14:29;2.65;;;0.40;;
49592;SDS011;35499;51.482;4.264;2023-02-27T15:16:58;2.45;;;0.77;;
49592;SDS011;35499;51.482;4.264;2023-02-27T15:19:24;2.57;;;1.20;;
49592;SDS011;35499;51.482;4.264;2023-02-27T15:21:55;2.85;;;0.80;;
49592;SDS011;35499;51.482;4.264;2023-02-27T15:24:29;3.28;;;0.90;;
49592;SDS011;35499;51.482;4.264;2023-02-27T15:26:57;1.00;;;0.50;;
49592;SDS011;35499;51.482;4.264;2023-02-27T15:29:29;1.45;;;0.82;;
49592;SDS011;35499;51.482;4.264;2023-02-27T15:34:23;0.73;;;0.40;;
49592;SDS011;35499;51.482;4.264;2023-02-27T15:36:52;1.50;;;0.80;;
49592;SDS011;35499;51.482;4.264;2023-02-27T15:39:20;2.45;;;1.10;;
49592;SDS011;35499;51.482;4.264;2023-02-27T15:41:51;2.90;;;0.80;;
49592;SDS011;35499;51.482;4.264;2023-02-27T15:44:40;1.30;;;0.50;;
49592;SDS011;35499;51.482;4.264;2023-02-27T15:47:17;1.40;;;0.68;;
49592;SDS011;35499;51.482;4.264;2023-02-27T15:49:48;2.67;;;0.88;;
49592;SDS011;35499;51.482;4.264;2023-02-27T15:52:20;1.20;;;0.60;;
49592;SDS011;35499;51.482;4.264;2023-02-27T15:55:11;1.30;;;0.60;;
49592;SDS011;35499;51.482;4.264;2023-02-27T15:57:40;1.10;;;0.40;;
49592;SDS011;35499;51.482;4.264;2023-02-27T16:00:08;5.07;;;0.73;;
49592;SDS011;35499;51.482;4.264;2023-02-27T16:02:45;1.45;;;0.57;;
49592;SDS011;35499;51.482;4.264;2023-02-27T16:05:18;1.90;;;0.73;;
49592;SDS011;35499;51.482;4.264;2023-02-27T16:07:45;3.28;;;0.73;;
49592;SDS011;35499;51.482;4.264;2023-02-27T16:13:18;4.78;;;0.98;;
49592;SDS011;35499;51.482;4.264;2023-02-27T16:15:56;2.33;;;0.70;;
49592;SDS011;35499;51.482;4.264;2023-02-27T16:18:28;2.90;;;0.50;;
49592;SDS011;35499;51.482;4.264;2023-02-27T16:20:57;2.60;;;0.80;;
49592;SDS011;35499;51.482;4.264;2023-02-27T16:23:33;2.20;;;0.75;;
49592;SDS011;35499;51.482;4.264;2023-02-27T16:36:37;7.03;;;0.93;;
49592;SDS011;35499;51.482;4.264;2023-02-27T16:39:04;2.55;;;1.15;;
49592;SDS011;35499;51.482;4.264;2023-02-27T16:41:32;2.92;;;0.80;;
49592;SDS011;35499;51.482;4.264;2023-02-27T16:43:57;2.35;;;1.35;;
49592;SDS011;35499;51.482;4.264;2023-02-27T16:46:23;2.90;;;0.70;;
49592;SDS011;35499;51.482;4.264;2023-02-27T16:48:49;4.10;;;1.33;;
49592;SDS011;35499;51.482;4.264;2023-02-27T16:51:21;7.72;;;0.80;;
49592;SDS011;35499;51.482;4.264;2023-02-27T16:53:48;2.65;;;0.70;;
49592;SDS011;35499;51.482;4.264;2023-02-27T16:56:14;4.80;;;1.33;;
49592;SDS011;35499;51.482;4.264;2023-02-27T16:58:40;3.60;;;0.80;;
49592;SDS011;35499;51.482;4.264;2023-02-27T17:01:06;2.22;;;0.70;;
49592;SDS011;35499;51.482;4.264;2023-02-27T17:03:31;3.17;;;0.98;;
49592;SDS011;35499;51.482;4.264;2023-02-27T17:05:57;2.83;;;0.93;;
49592;SDS011;35499;51.482;4.264;2023-02-27T17:08:23;2.53;;;1.05;;
49592;SDS011;35499;51.482;4.264;2023-02-27T17:10:48;2.50;;;1.00;;
49592;SDS011;35499;51.482;4.264;2023-02-27T17:13:14;8.23;;;0.93;;
49592;SDS011;35499;51.482;4.264;2023-02-27T17:15:39;2.92;;;0.90;;
49592;SDS011;35499;51.482;4.264;2023-02-27T17:18:05;4.22;;;0.82;;
49592;SDS011;35499;51.482;4.264;2023-02-27T17:20:30;4.93;;;1.13;;
49592;SDS011;35499;51.482;4.264;2023-02-27T17:22:56;5.70;;;0.90;;
49592;SDS011;35499;51.482;4.264;2023-02-27T17:25:21;3.80;;;1.00;;
49592;SDS011;35499;51.482;4.264;2023-02-27T17:27:47;1.60;;;0.60;;
49592;SDS011;35499;51.482;4.264;2023-02-27T17:30:13;2.13;;;1.00;;
49592;SDS011;35499;51.482;4.264;2023-02-27T17:32:39;5.32;;;1.25;;
49592;SDS011;35499;51.482;4.264;2023-02-27T17:35:04;3.70;;;1.00;;
49592;SDS011;35499;51.482;4.264;2023-02-27T17:37:30;3.17;;;1.10;;
49592;SDS011;35499;51.482;4.264;2023-02-27T17:39:55;3.57;;;1.10;;
49592;SDS011;35499;51.482;4.264;2023-02-27T17:42:20;2.37;;;1.07;;
49592;SDS011;35499;51.482;4.264;2023-02-27T17:44:49;3.50;;;1.17;;
49592;SDS011;35499;51.482;4.264;2023-02-27T17:47:15;4.68;;;1.10;;
49592;SDS011;35499;51.482;4.264;2023-02-27T17:49:40;6.27;;;1.20;;
49592;SDS011;35499;51.482;4.264;2023-02-27T17:52:06;4.88;;;1.02;;
49592;SDS011;35499;51.482;4.264;2023-02-27T17:54:32;2.72;;;1.08;;
49592;SDS011;35499;51.482;4.264;2023-02-27T17:56:58;2.35;;;1.00;;
49592;SDS011;35499;51.482;4.264;2023-02-27T17:59:23;5.40;;;1.07;;
49592;SDS011;35499;51.482;4.264;2023-02-27T18:01:49;2.15;;;1.20;;
49592;SDS011;35499;51.482;4.264;2023-02-27T18:04:14;2.58;;;1.13;;
49592;SDS011;35499;51.482;4.264;2023-02-27T18:06:41;2.95;;;0.93;;
49592;SDS011;35499;51.482;4.264;2023-02-27T18:09:07;3.50;;;1.00;;
49592;SDS011;35499;51.482;4.264;2023-02-27T18:11:32;4.55;;;1.50;;
49592;SDS011;35499;51.482;4.264;2023-02-27T18:13:58;3.03;;;1.07;;
49592;SDS011;35499;51.482;4.264;2023-02-27T18:16:24;2.78;;;1.23;;